sensor_id;sensor_type;location;lat;lon;timestamp;P1;durP1;ratioP1;P2;durP2;ratioP2
16430;SDS011;8325;49.284;7.238;2022-12-07T05:01:10;12.27;;;6.53;;
16430;SDS011;8325;49.284;7.238;2022-12-07T05:05:21;11.20;;;6.83;;
16430;SDS011;8325;49.284;7.238;2022-12-07T05:09:33;10.83;;;6.80;;
16430;SDS011;8325;49.284;7.238;2022-12-07T05:13:44;11.37;;;6.60;;
16430;SDS011;8325;49.284;7.238;2022-12-07T05:17:56;12.00;;;7.10;;
16430;SDS011;8325;49.284;7.238;2022-12-07T05:22:07;11.57;;;6.57;;
16430;SDS011;8325;49.284;7.238;2022-12-07T05:26:19;8.33;;;6.20;;
16430;SDS011;8325;49.284;7.238;2022-12-07T05:30:30;10.00;;;6.83;;
16430;SDS011;8325;49.284;7.238;2022-12-07T05:34:42;11.50;;;6.93;;
16430;SDS011;8325;49.284;7.238;2022-12-07T05:38:53;12.90;;;7.03;;
16430;SDS011;8325;49.284;7.238;2022-12-07T05:43:05;10.07;;;7.23;;
16430;SDS011;8325;49.284;7.238;2022-12-07T05:47:16;11.87;;;7.37;;
16430;SDS011;8325;49.284;7.238;2022-12-07T05:51:28;11.80;;;6.33;;
16430;SDS011;8325;49.284;7.238;2022-12-07T05:55:40;10.77;;;6.70;;
16430;SDS011;8325;49.284;7.238;2022-12-07T05:59:51;10.77;;;6.57;;
16430;SDS011;8325;49.284;7.238;2022-12-07T06:04:03;12.40;;;7.33;;
16430;SDS011;8325;49.284;7.238;2022-12-07T06:08:14;12.53;;;7.20;;
16430;SDS011;8325;49.284;7.238;2022-12-07T06:12:26;12.93;;;7.60;;
16430;SDS011;8325;49.284;7.238;2022-12-07T06:16:49;12.70;;;7.57;;
16430;SDS011;8325;49.284;7.238;2022-12-07T06:21:01;11.15;;;7.10;;
16430;SDS011;8325;49.284;7.238;2022-12-07T06:25:12;11.67;;;7.13;;
16430;SDS011;8325;49.284;7.238;2022-12-07T06:29:24;15.33;;;8.57;;
16430;SDS011;8325;49.284;7.238;2022-12-07T06:33:36;13.47;;;7.40;;
16430;SDS011;8325;49.284;7.238;2022-12-07T06:37:47;13.10;;;7.33;;
16430;SDS011;8325;49.284;7.238;2022-12-07T06:41:59;14.43;;;9.30;;
16430;SDS011;8325;49.284;7.238;2022-12-07T06:46:10;13.30;;;8.67;;
16430;SDS011;8325;49.284;7.238;2022-12-07T06:50:22;12.63;;;8.20;;
16430;SDS011;8325;49.284;7.238;2022-12-07T06:54:33;12.70;;;8.17;;
16430;SDS011;8325;49.284;7.238;2022-12-07T06:58:45;14.27;;;8.10;;
16430;SDS011;8325;49.284;7.238;2022-12-07T07:02:56;15.07;;;8.23;;
16430;SDS011;8325;49.284;7.238;2022-12-07T07:07:08;14.20;;;8.87;;
16430;SDS011;8325;49.284;7.238;2022-12-07T07:11:19;14.30;;;8.50;;
16430;SDS011;8325;49.284;7.238;2022-12-07T07:15:31;14.63;;;8.20;;
16430;SDS011;8325;49.284;7.238;2022-12-07T07:19:43;15.13;;;8.38;;
16430;SDS011;8325;49.284;7.238;2022-12-07T07:23:54;14.47;;;8.37;;
16430;SDS011;8325;49.284;7.238;2022-12-07T07:28:07;15.93;;;8.37;;
16430;SDS011;8325;49.284;7.238;2022-12-07T07:32:19;13.32;;;8.25;;
16430;SDS011;8325;49.284;7.238;2022-12-07T07:36:30;16.38;;;9.35;;
16430;SDS011;8325;49.284;7.238;2022-12-07T07:40:42;16.52;;;8.63;;
16430;SDS011;8325;49.284;7.238;2022-12-07T07:44:53;15.67;;;9.30;;
16430;SDS011;8325;49.284;7.238;2022-12-07T07:49:05;16.67;;;9.70;;
16430;SDS011;8325;49.284;7.238;2022-12-07T07:53:16;15.93;;;9.32;;
16430;SDS011;8325;49.284;7.238;2022-12-07T07:57:28;18.40;;;10.65;;
16430;SDS011;8325;49.284;7.238;2022-12-07T08:01:39;19.33;;;11.30;;
16430;SDS011;8325;49.284;7.238;2022-12-07T08:05:51;18.50;;;10.90;;
16430;SDS011;8325;49.284;7.238;2022-12-07T08:10:02;19.88;;;10.80;;
16430;SDS011;8325;49.284;7.238;2022-12-07T08:14:15;20.92;;;11.40;;
16430;SDS011;8325;49.284;7.238;2022-12-07T08:18:26;20.48;;;11.95;;
16430;SDS011;8325;49.284;7.238;2022-12-07T08:22:38;16.65;;;9.75;;
16430;SDS011;8325;49.284;7.238;2022-12-07T08:26:49;17.55;;;10.13;;
16430;SDS011;8325;49.284;7.238;2022-12-07T08:31:05;20.00;;;10.23;;
16430;SDS011;8325;49.284;7.238;2022-12-07T08:35:19;20.10;;;10.98;;
16430;SDS011;8325;49.284;7.238;2022-12-07T08:39:31;21.55;;;10.75;;
16430;SDS011;8325;49.284;7.238;2022-12-07T08:43:43;18.73;;;10.93;;
16430;SDS011;8325;49.284;7.238;2022-12-07T08:48:00;16.23;;;10.68;;
16430;SDS011;8325;49.284;7.238;2022-12-07T08:52:17;19.52;;;11.55;;
16430;SDS011;8325;49.284;7.238;2022-12-07T08:56:29;22.55;;;12.20;;
16430;SDS011;8325;49.284;7.238;2022-12-07T09:00:40;19.20;;;11.77;;
16430;SDS011;8325;49.284;7.238;2022-12-07T09:04:52;23.27;;;11.98;;
16430;SDS011;8325;49.284;7.238;2022-12-07T09:09:04;20.65;;;12.07;;
16430;SDS011;8325;49.284;7.238;2022-12-07T09:13:15;20.73;;;12.32;;
16430;SDS011;8325;49.284;7.238;2022-12-07T09:17:27;24.25;;;12.77;;
16430;SDS011;8325;49.284;7.238;2022-12-07T09:21:38;24.73;;;12.45;;
16430;SDS011;8325;49.284;7.238;2022-12-07T09:25:50;23.95;;;13.30;;
16430;SDS011;8325;49.284;7.238;2022-12-07T09:30:02;24.77;;;13.27;;
16430;SDS011;8325;49.284;7.238;2022-12-07T09:34:14;23.23;;;13.18;;
16430;SDS011;8325;49.284;7.238;2022-12-07T09:38:26;21.95;;;12.32;;
16430;SDS011;8325;49.284;7.238;2022-12-07T09:42:39;22.65;;;12.15;;
16430;SDS011;8325;49.284;7.238;2022-12-07T09:46:55;21.35;;;12.45;;
16430;SDS011;8325;49.284;7.238;2022-12-07T09:51:13;26.17;;;13.25;;
16430;SDS011;8325;49.284;7.238;2022-12-07T09:55:34;23.88;;;12.20;;
16430;SDS011;8325;49.284;7.238;2022-12-07T09:59:47;22.60;;;11.90;;
16430;SDS011;8325;49.284;7.238;2022-12-07T10:04:12;20.33;;;12.05;;
16430;SDS011;8325;49.284;7.238;2022-12-07T10:08:29;22.25;;;11.98;;
16430;SDS011;8325;49.284;7.238;2022-12-07T10:13:01;20.75;;;11.68;;
16430;SDS011;8325;49.284;7.238;2022-12-07T10:17:26;21.45;;;11.35;;
16430;SDS011;8325;49.284;7.238;2022-12-07T10:22:18;17.85;;;11.13;;
16430;SDS011;8325;49.284;7.238;2022-12-07T10:26:32;19.17;;;11.40;;
16430;SDS011;8325;49.284;7.238;2022-12-07T10:30:49;18.15;;;9.93;;
16430;SDS011;8325;49.284;7.238;2022-12-07T10:35:18;21.30;;;10.77;;
16430;SDS011;8325;49.284;7.238;2022-12-07T10:44:07;16.92;;;12.18;;
16430;SDS011;8325;49.284;7.238;2022-12-07T10:49:17;20.58;;;10.18;;
16430;SDS011;8325;49.284;7.238;2022-12-07T11:02:45;19.58;;;10.23;;
16430;SDS011;8325;49.284;7.238;2022-12-07T11:07:13;18.23;;;10.40;;
16430;SDS011;8325;49.284;7.238;2022-12-07T11:11:40;16.40;;;9.80;;
16430;SDS011;8325;49.284;7.238;2022-12-07T11:29:50;16.25;;;9.50;;
16430;SDS011;8325;49.284;7.238;2022-12-07T11:34:10;18.98;;;10.25;;
16430;SDS011;8325;49.284;7.238;2022-12-07T11:38:37;13.95;;;8.77;;
16430;SDS011;8325;49.284;7.238;2022-12-07T11:47:47;14.70;;;8.65;;
16430;SDS011;8325;49.284;7.238;2022-12-07T11:52:04;22.88;;;13.15;;
16430;SDS011;8325;49.284;7.238;2022-12-07T11:56:25;10.55;;;5.88;;
16430;SDS011;8325;49.284;7.238;2022-12-07T12:00:38;11.43;;;6.90;;
16430;SDS011;8325;49.284;7.238;2022-12-07T12:04:55;9.45;;;5.78;;
16430;SDS011;8325;49.284;7.238;2022-12-07T12:09:14;8.68;;;5.32;;
16430;SDS011;8325;49.284;7.238;2022-12-07T12:18:48;7.57;;;5.28;;
16430;SDS011;8325;49.284;7.238;2022-12-07T12:23:13;7.85;;;5.38;;
16430;SDS011;8325;49.284;7.238;2022-12-07T12:27:26;8.43;;;5.82;;
16430;SDS011;8325;49.284;7.238;2022-12-07T12:31:41;8.90;;;5.70;;
16430;SDS011;8325;49.284;7.238;2022-12-07T12:36:17;8.57;;;6.15;;
16430;SDS011;8325;49.284;7.238;2022-12-07T12:44:48;8.95;;;5.55;;
16430;SDS011;8325;49.284;7.238;2022-12-07T12:53:27;8.05;;;5.18;;
16430;SDS011;8325;49.284;7.238;2022-12-07T12:57:40;7.88;;;5.78;;
16430;SDS011;8325;49.284;7.238;2022-12-07T13:01:56;8.18;;;5.15;;
16430;SDS011;8325;49.284;7.238;2022-12-07T13:10:38;7.28;;;5.05;;
16430;SDS011;8325;49.284;7.238;2022-12-07T13:14:53;10.43;;;5.70;;
16430;SDS011;8325;49.284;7.238;2022-12-07T13:23:54;7.80;;;5.38;;
16430;SDS011;8325;49.284;7.238;2022-12-07T13:28:16;10.15;;;5.22;;
16430;SDS011;8325;49.284;7.238;2022-12-07T13:32:29;8.18;;;5.28;;
16430;SDS011;8325;49.284;7.238;2022-12-07T13:36:43;6.65;;;4.45;;
16430;SDS011;8325;49.284;7.238;2022-12-07T13:40:59;6.82;;;4.47;;
16430;SDS011;8325;49.284;7.238;2022-12-07T13:50:01;6.30;;;4.32;;
16430;SDS011;8325;49.284;7.238;2022-12-07T13:54:32;7.78;;;5.45;;
16430;SDS011;8325;49.284;7.238;2022-12-07T13:58:44;7.60;;;5.28;;
16430;SDS011;8325;49.284;7.238;2022-12-07T14:03:17;6.40;;;5.28;;
16430;SDS011;8325;49.284;7.238;2022-12-07T14:07:47;7.70;;;5.15;;
16430;SDS011;8325;49.284;7.238;2022-12-07T14:12:05;6.88;;;5.13;;
16430;SDS011;8325;49.284;7.238;2022-12-07T14:16:20;6.25;;;4.75;;
16430;SDS011;8325;49.284;7.238;2022-12-07T14:20:39;8.18;;;4.93;;
16430;SDS011;8325;49.284;7.238;2022-12-07T14:24:59;7.43;;;5.45;;
16430;SDS011;8325;49.284;7.238;2022-12-07T14:29:19;7.93;;;5.38;;
16430;SDS011;8325;49.284;7.238;2022-12-07T14:33:37;8.25;;;5.93;;
16430;SDS011;8325;49.284;7.238;2022-12-07T14:37:49;7.57;;;5.28;;
16430;SDS011;8325;49.284;7.238;2022-12-07T14:42:01;6.85;;;5.28;;
16430;SDS011;8325;49.284;7.238;2022-12-07T14:46:12;7.75;;;5.22;;
16430;SDS011;8325;49.284;7.238;2022-12-07T14:50:24;9.02;;;6.18;;
16430;SDS011;8325;49.284;7.238;2022-12-07T14:54:35;12.75;;;6.60;;
16430;SDS011;8325;49.284;7.238;2022-12-07T14:58:47;11.10;;;7.00;;
16430;SDS011;8325;49.284;7.238;2022-12-07T15:02:59;13.32;;;8.02;;
16430;SDS011;8325;49.284;7.238;2022-12-07T15:07:20;15.95;;;9.15;;
16430;SDS011;8325;49.284;7.238;2022-12-07T15:11:32;16.25;;;9.15;;
16430;SDS011;8325;49.284;7.238;2022-12-07T15:15:44;15.02;;;8.40;;
16430;SDS011;8325;49.284;7.238;2022-12-07T15:19:56;13.23;;;8.30;;
16430;SDS011;8325;49.284;7.238;2022-12-07T15:24:08;8.55;;;5.90;;
16430;SDS011;8325;49.284;7.238;2022-12-07T15:28:21;8.23;;;5.95;;
16430;SDS011;8325;49.284;7.238;2022-12-07T15:32:32;7.57;;;5.45;;
16430;SDS011;8325;49.284;7.238;2022-12-07T15:36:44;11.02;;;7.25;;
16430;SDS011;8325;49.284;7.238;2022-12-07T15:40:55;11.30;;;7.03;;
16430;SDS011;8325;49.284;7.238;2022-12-07T15:45:07;11.32;;;7.03;;
16430;SDS011;8325;49.284;7.238;2022-12-07T15:49:20;7.05;;;5.13;;
16430;SDS011;8325;49.284;7.238;2022-12-07T15:53:31;8.98;;;5.70;;
16430;SDS011;8325;49.284;7.238;2022-12-07T15:57:43;7.85;;;5.32;;
16430;SDS011;8325;49.284;7.238;2022-12-07T16:01:55;9.90;;;6.15;;
16430;SDS011;8325;49.284;7.238;2022-12-07T16:06:06;10.10;;;5.78;;
16430;SDS011;8325;49.284;7.238;2022-12-07T16:10:18;11.00;;;6.93;;
16430;SDS011;8325;49.284;7.238;2022-12-07T16:14:29;8.77;;;6.28;;
16430;SDS011;8325;49.284;7.238;2022-12-07T16:18:44;12.70;;;7.32;;
16430;SDS011;8325;49.284;7.238;2022-12-07T16:22:56;9.52;;;6.75;;
16430;SDS011;8325;49.284;7.238;2022-12-07T16:27:08;7.22;;;5.15;;
16430;SDS011;8325;49.284;7.238;2022-12-07T16:31:20;9.85;;;5.85;;
16430;SDS011;8325;49.284;7.238;2022-12-07T16:35:34;9.77;;;5.85;;
16430;SDS011;8325;49.284;7.238;2022-12-07T16:39:51;10.02;;;6.47;;
16430;SDS011;8325;49.284;7.238;2022-12-07T16:44:04;16.42;;;9.98;;
16430;SDS011;8325;49.284;7.238;2022-12-07T16:48:17;11.15;;;7.70;;
16430;SDS011;8325;49.284;7.238;2022-12-07T16:52:29;10.27;;;7.22;;
16430;SDS011;8325;49.284;7.238;2022-12-07T16:56:40;10.05;;;6.13;;
16430;SDS011;8325;49.284;7.238;2022-12-07T17:00:52;11.98;;;6.88;;
16430;SDS011;8325;49.284;7.238;2022-12-07T17:05:04;10.55;;;5.78;;
16430;SDS011;8325;49.284;7.238;2022-12-07T17:09:16;9.80;;;6.30;;
16430;SDS011;8325;49.284;7.238;2022-12-07T17:13:31;10.60;;;7.33;;
16430;SDS011;8325;49.284;7.238;2022-12-07T17:18:01;10.27;;;6.68;;
16430;SDS011;8325;49.284;7.238;2022-12-07T17:22:13;9.32;;;5.95;;
16430;SDS011;8325;49.284;7.238;2022-12-07T17:26:25;9.70;;;6.33;;
16430;SDS011;8325;49.284;7.238;2022-12-07T17:30:45;9.77;;;6.07;;
16430;SDS011;8325;49.284;7.238;2022-12-07T17:34:57;11.02;;;6.50;;
16430;SDS011;8325;49.284;7.238;2022-12-07T17:39:09;15.02;;;7.43;;
16430;SDS011;8325;49.284;7.238;2022-12-07T17:43:22;11.90;;;7.70;;
16430;SDS011;8325;49.284;7.238;2022-12-07T17:47:34;9.48;;;6.22;;
16430;SDS011;8325;49.284;7.238;2022-12-07T17:51:47;10.75;;;6.70;;
16430;SDS011;8325;49.284;7.238;2022-12-07T17:56:18;9.70;;;6.40;;
16430;SDS011;8325;49.284;7.238;2022-12-07T18:00:39;15.45;;;9.52;;
16430;SDS011;8325;49.284;7.238;2022-12-07T18:04:51;14.50;;;8.33;;
16430;SDS011;8325;49.284;7.238;2022-12-07T18:09:03;12.83;;;8.10;;
16430;SDS011;8325;49.284;7.238;2022-12-07T18:13:15;12.13;;;8.13;;
16430;SDS011;8325;49.284;7.238;2022-12-07T18:17:45;12.85;;;7.97;;
16430;SDS011;8325;49.284;7.238;2022-12-07T18:21:57;11.37;;;7.23;;
16430;SDS011;8325;49.284;7.238;2022-12-07T18:26:09;10.80;;;7.47;;
16430;SDS011;8325;49.284;7.238;2022-12-07T18:30:21;13.80;;;9.23;;
16430;SDS011;8325;49.284;7.238;2022-12-07T18:34:52;13.13;;;9.07;;
16430;SDS011;8325;49.284;7.238;2022-12-07T18:39:05;12.53;;;7.50;;
16430;SDS011;8325;49.284;7.238;2022-12-07T18:43:17;13.10;;;8.03;;
16430;SDS011;8325;49.284;7.238;2022-12-07T18:47:29;11.80;;;7.93;;
16430;SDS011;8325;49.284;7.238;2022-12-07T18:51:41;10.93;;;7.50;;
16430;SDS011;8325;49.284;7.238;2022-12-07T18:56:06;13.03;;;8.60;;
16430;SDS011;8325;49.284;7.238;2022-12-07T19:00:20;13.83;;;7.80;;
16430;SDS011;8325;49.284;7.238;2022-12-07T19:04:33;11.60;;;8.00;;
16430;SDS011;8325;49.284;7.238;2022-12-07T19:08:45;10.23;;;6.93;;
16430;SDS011;8325;49.284;7.238;2022-12-07T19:12:56;15.57;;;8.17;;
16430;SDS011;8325;49.284;7.238;2022-12-07T19:17:09;17.10;;;10.07;;
16430;SDS011;8325;49.284;7.238;2022-12-07T19:21:23;13.97;;;8.00;;
16430;SDS011;8325;49.284;7.238;2022-12-07T19:25:34;13.87;;;8.73;;
16430;SDS011;8325;49.284;7.238;2022-12-07T19:29:46;13.77;;;9.77;;
16430;SDS011;8325;49.284;7.238;2022-12-07T19:33:58;15.43;;;9.23;;
16430;SDS011;8325;49.284;7.238;2022-12-07T19:38:10;16.57;;;10.10;;
16430;SDS011;8325;49.284;7.238;2022-12-07T19:42:22;14.50;;;9.37;;
16430;SDS011;8325;49.284;7.238;2022-12-07T19:46:33;16.53;;;10.50;;
16430;SDS011;8325;49.284;7.238;2022-12-07T19:50:45;13.60;;;8.83;;
16430;SDS011;8325;49.284;7.238;2022-12-07T19:54:57;16.57;;;10.37;;
16430;SDS011;8325;49.284;7.238;2022-12-07T19:59:09;20.63;;;11.90;;
16430;SDS011;8325;49.284;7.238;2022-12-07T20:03:21;15.43;;;10.27;;
16430;SDS011;8325;49.284;7.238;2022-12-07T20:07:32;19.10;;;9.80;;
16430;SDS011;8325;49.284;7.238;2022-12-07T20:11:49;16.47;;;9.47;;
16430;SDS011;8325;49.284;7.238;2022-12-07T20:16:20;13.00;;;8.97;;
16430;SDS011;8325;49.284;7.238;2022-12-07T20:20:31;22.20;;;12.13;;
16430;SDS011;8325;49.284;7.238;2022-12-07T20:24:43;18.57;;;11.47;;
16430;SDS011;8325;49.284;7.238;2022-12-07T20:28:54;19.47;;;10.77;;
16430;SDS011;8325;49.284;7.238;2022-12-07T20:33:06;16.03;;;9.33;;
16430;SDS011;8325;49.284;7.238;2022-12-07T20:37:17;15.70;;;10.90;;
16430;SDS011;8325;49.284;7.238;2022-12-07T20:41:29;16.70;;;10.47;;
16430;SDS011;8325;49.284;7.238;2022-12-07T20:46:00;13.33;;;8.30;;
16430;SDS011;8325;49.284;7.238;2022-12-07T20:50:12;16.13;;;9.30;;
16430;SDS011;8325;49.284;7.238;2022-12-07T20:54:23;15.70;;;9.53;;
16430;SDS011;8325;49.284;7.238;2022-12-07T20:58:35;15.10;;;8.80;;
16430;SDS011;8325;49.284;7.238;2022-12-07T21:02:46;17.47;;;9.17;;
16430;SDS011;8325;49.284;7.238;2022-12-07T21:06:58;15.43;;;9.27;;
16430;SDS011;8325;49.284;7.238;2022-12-07T21:11:09;16.60;;;9.63;;
16430;SDS011;8325;49.284;7.238;2022-12-07T21:15:21;14.27;;;7.80;;
16430;SDS011;8325;49.284;7.238;2022-12-07T21:19:33;13.50;;;7.87;;
16430;SDS011;8325;49.284;7.238;2022-12-07T21:23:45;14.50;;;8.43;;
16430;SDS011;8325;49.284;7.238;2022-12-07T21:27:59;12.83;;;8.23;;
16430;SDS011;8325;49.284;7.238;2022-12-07T21:32:11;13.20;;;7.23;;
16430;SDS011;8325;49.284;7.238;2022-12-07T21:36:24;12.07;;;7.20;;
16430;SDS011;8325;49.284;7.238;2022-12-07T21:40:36;12.13;;;7.23;;
16430;SDS011;8325;49.284;7.238;2022-12-07T21:44:48;12.87;;;7.27;;
16430;SDS011;8325;49.284;7.238;2022-12-07T21:49:10;14.53;;;8.17;;
16430;SDS011;8325;49.284;7.238;2022-12-07T22:11:09;14.13;;;7.53;;
16430;SDS011;8325;49.284;7.238;2022-12-07T22:15:21;12.77;;;7.17;;
16430;SDS011;8325;49.284;7.238;2022-12-07T22:19:44;14.10;;;7.77;;
16430;SDS011;8325;49.284;7.238;2022-12-07T22:23:55;11.13;;;6.83;;
16430;SDS011;8325;49.284;7.238;2022-12-07T22:28:07;9.80;;;6.20;;
